UAE52M OMDB-EDDF
Flight info
| Callsign | UAE52M |
|---|---|
| Flight time | N/A |
| Altitude | 34000 |
| Route | ANVIX R401 GIDIS G783 ELUDA DCT ESROM M318 GOLGU DCT BOSOB/N0484F360 DCT ITRUX Y511 PMA Z712 WEJ L677 GESON Q777 RASDA DCT OTHON DCT VAXOS DCT RDS/N0478F380 UL609 MES DCT EVIVI DCT OKANA DCT BABIT DCT ARSIN DCT SUBEN T161 DEBHI DEBHI1C |
| Aircraft | B77W/H-SDE1E2E3FGHIJ2J3J4J5M1RWXY/LB1D1 |
Departure
| Time | N/A |
|---|---|
| Airport | Dubai International Airport (OMDB) |
Arrival
| Time | 2026-04-17 10:03 |
|---|---|
| Airport | Frankfurt Main Airport (EDDF) |
| Time | Latitude | Longitude | Altitude | Speed | Heading |
|---|---|---|---|---|---|
| 2026-04-17 07:52 | 40.58091 | 24.12065 | 38029 ft | 471 kts | 328° |
| 2026-04-17 07:52 | 40.60977 | 24.09762 | 38030 ft | 471 kts | 328° |
| 2026-04-17 07:53 | 40.66586 | 24.05281 | 38030 ft | 470 kts | 328° |
| 2026-04-17 07:53 | 40.72205 | 24.00782 | 38029 ft | 470 kts | 328° |
| 2026-04-17 07:54 | 40.77841 | 23.96261 | 38029 ft | 471 kts | 328° |
| 2026-04-17 07:54 | 40.83429 | 23.91769 | 38030 ft | 470 kts | 328° |
| 2026-04-17 07:55 | 40.89048 | 23.87243 | 38031 ft | 469 kts | 328° |
| 2026-04-17 07:55 | 40.94653 | 23.82720 | 38033 ft | 470 kts | 328° |
| 2026-04-17 07:56 | 41.00216 | 23.78221 | 38034 ft | 470 kts | 328° |
| 2026-04-17 07:56 | 41.05831 | 23.73672 | 38035 ft | 470 kts | 328° |
| 2026-04-17 07:57 | 41.11225 | 23.69291 | 38039 ft | 470 kts | 328° |
| 2026-04-17 07:57 | 41.16571 | 23.64943 | 38050 ft | 469 kts | 328° |
| 2026-04-17 07:58 | 41.22086 | 23.60448 | 38052 ft | 470 kts | 328° |
| 2026-04-17 07:58 | 41.27636 | 23.55915 | 38063 ft | 469 kts | 328° |
| 2026-04-17 07:59 | 41.33206 | 23.51356 | 38063 ft | 469 kts | 328° |
| 2026-04-17 07:59 | 41.38813 | 23.46759 | 38059 ft | 469 kts | 328° |
| 2026-04-17 08:00 | 41.44548 | 23.42534 | 38066 ft | 469 kts | 334° |
| 2026-04-17 08:00 | 41.50422 | 23.38817 | 38062 ft | 468 kts | 334° |
| 2026-04-17 08:01 | 41.56343 | 23.35015 | 38064 ft | 467 kts | 334° |
| 2026-04-17 08:01 | 41.62104 | 23.31278 | 38073 ft | 465 kts | 333° |
| 2026-04-17 08:02 | 41.67902 | 23.27495 | 38069 ft | 463 kts | 333° |
| 2026-04-17 08:02 | 41.73723 | 23.23681 | 38070 ft | 463 kts | 333° |
| 2026-04-17 08:03 | 41.79512 | 23.19875 | 38075 ft | 463 kts | 333° |
| 2026-04-17 08:03 | 41.85309 | 23.16054 | 38081 ft | 463 kts | 333° |
| 2026-04-17 08:04 | 41.91145 | 23.12198 | 38077 ft | 464 kts | 333° |
| 2026-04-17 08:04 | 41.96910 | 23.08380 | 38076 ft | 463 kts | 333° |
| 2026-04-17 08:05 | 42.02724 | 23.04523 | 38082 ft | 463 kts | 333° |
| 2026-04-17 08:05 | 42.08556 | 23.00645 | 38069 ft | 463 kts | 333° |
| 2026-04-17 08:06 | 42.13983 | 22.97029 | 38076 ft | 462 kts | 333° |
| 2026-04-17 08:06 | 42.19901 | 22.93078 | 38080 ft | 462 kts | 333° |
| 2026-04-17 08:07 | 42.25666 | 22.89221 | 38081 ft | 462 kts | 333° |
| 2026-04-17 08:07 | 42.31427 | 22.85359 | 38085 ft | 461 kts | 333° |
| 2026-04-17 08:08 | 42.37172 | 22.81500 | 38087 ft | 461 kts | 333° |
| 2026-04-17 08:08 | 42.42865 | 22.77668 | 38083 ft | 461 kts | 333° |
| 2026-04-17 08:09 | 42.48611 | 22.73792 | 38096 ft | 460 kts | 333° |
| 2026-04-17 08:09 | 42.54362 | 22.69904 | 38094 ft | 461 kts | 333° |
| 2026-04-17 08:10 | 42.60024 | 22.66069 | 38097 ft | 459 kts | 333° |
| 2026-04-17 08:10 | 42.65779 | 22.62164 | 38105 ft | 459 kts | 333° |
| 2026-04-17 08:11 | 42.71485 | 22.58282 | 38113 ft | 459 kts | 333° |
| 2026-04-17 08:11 | 42.77210 | 22.54381 | 38108 ft | 459 kts | 333° |
| 2026-04-17 08:12 | 42.82971 | 22.50436 | 38109 ft | 458 kts | 331° |
| 2026-04-17 08:12 | 42.88174 | 22.45477 | 38122 ft | 457 kts | 321° |
| 2026-04-17 08:13 | 42.93153 | 22.40109 | 38117 ft | 457 kts | 321° |
| 2026-04-17 08:14 | 43.00432 | 22.32230 | 38118 ft | 457 kts | 321° |
| 2026-04-17 08:14 | 43.05503 | 22.26725 | 38118 ft | 456 kts | 321° |
| 2026-04-17 08:15 | 43.10470 | 22.21320 | 38103 ft | 456 kts | 321° |
| 2026-04-17 08:15 | 43.15049 | 22.16328 | 38102 ft | 457 kts | 321° |
| 2026-04-17 08:16 | 43.19930 | 22.10995 | 38108 ft | 457 kts | 321° |
| 2026-04-17 08:16 | 43.24882 | 22.05573 | 38103 ft | 457 kts | 321° |
| 2026-04-17 08:17 | 43.29839 | 22.00134 | 38122 ft | 458 kts | 321° |
| 2026-04-17 08:17 | 43.34791 | 21.94688 | 38108 ft | 457 kts | 321° |
| 2026-04-17 08:18 | 43.39759 | 21.89212 | 38113 ft | 455 kts | 321° |
| 2026-04-17 08:18 | 43.44732 | 21.83720 | 38108 ft | 457 kts | 321° |
| 2026-04-17 08:19 | 43.49683 | 21.78241 | 38108 ft | 455 kts | 321° |
| 2026-04-17 08:19 | 43.54653 | 21.72727 | 38115 ft | 456 kts | 321° |
| 2026-04-17 08:20 | 43.59639 | 21.67184 | 38100 ft | 456 kts | 321° |
| 2026-04-17 08:20 | 43.64588 | 21.61671 | 38116 ft | 455 kts | 321° |
| 2026-04-17 08:21 | 43.69535 | 21.56147 | 38118 ft | 456 kts | 321° |
| 2026-04-17 08:21 | 43.74446 | 21.50652 | 38102 ft | 455 kts | 321° |
| 2026-04-17 08:22 | 43.79388 | 21.45110 | 38112 ft | 455 kts | 321° |
| 2026-04-17 08:22 | 43.84306 | 21.39583 | 38112 ft | 455 kts | 321° |
| 2026-04-17 08:23 | 43.89227 | 21.34040 | 38112 ft | 454 kts | 321° |
| 2026-04-17 08:23 | 43.94078 | 21.28563 | 38119 ft | 454 kts | 321° |
| 2026-04-17 08:24 | 43.98940 | 21.23063 | 38115 ft | 454 kts | 321° |
| 2026-04-17 08:24 | 44.03828 | 21.17522 | 38116 ft | 454 kts | 321° |
| 2026-04-17 08:25 | 44.08705 | 21.11979 | 38116 ft | 454 kts | 321° |
| 2026-04-17 08:25 | 44.13309 | 21.06737 | 38118 ft | 454 kts | 321° |
| 2026-04-17 08:26 | 44.18269 | 21.01077 | 38117 ft | 453 kts | 321° |
| 2026-04-17 08:26 | 44.23160 | 20.95483 | 38117 ft | 453 kts | 321° |
| 2026-04-17 08:27 | 44.28050 | 20.89879 | 38118 ft | 453 kts | 321° |
| 2026-04-17 08:27 | 44.32936 | 20.84265 | 38115 ft | 453 kts | 321° |
| 2026-04-17 08:28 | 44.37816 | 20.78647 | 38115 ft | 452 kts | 321° |
| 2026-04-17 08:28 | 44.42672 | 20.73044 | 38113 ft | 452 kts | 320° |
| 2026-04-17 08:29 | 44.47549 | 20.67403 | 38116 ft | 452 kts | 320° |
| 2026-04-17 08:29 | 44.52388 | 20.61794 | 38119 ft | 452 kts | 320° |
| 2026-04-17 08:30 | 44.57250 | 20.56147 | 38122 ft | 451 kts | 320° |
| 2026-04-17 08:30 | 44.62072 | 20.50532 | 38123 ft | 451 kts | 320° |
| 2026-04-17 08:31 | 44.66878 | 20.44924 | 38129 ft | 450 kts | 320° |
| 2026-04-17 08:31 | 44.71710 | 20.39273 | 38128 ft | 451 kts | 320° |
| 2026-04-17 08:32 | 44.76510 | 20.33647 | 38137 ft | 450 kts | 319° |
| 2026-04-17 08:32 | 44.81178 | 20.28163 | 38137 ft | 450 kts | 319° |
| 2026-04-17 08:33 | 44.86027 | 20.22454 | 38139 ft | 450 kts | 319° |
| 2026-04-17 08:33 | 44.90808 | 20.16812 | 38140 ft | 450 kts | 319° |
| 2026-04-17 08:34 | 44.95616 | 20.11126 | 38138 ft | 450 kts | 319° |
| 2026-04-17 08:34 | 45.00438 | 20.05411 | 38139 ft | 450 kts | 319° |
| 2026-04-17 08:35 | 45.05218 | 19.99732 | 38139 ft | 450 kts | 319° |
| 2026-04-17 08:35 | 45.09984 | 19.94057 | 38141 ft | 448 kts | 319° |
| 2026-04-17 08:36 | 45.14698 | 19.88431 | 38137 ft | 449 kts | 319° |
| 2026-04-17 08:36 | 45.19462 | 19.82734 | 38133 ft | 447 kts | 318° |
| 2026-04-17 08:37 | 45.24218 | 19.77032 | 38140 ft | 446 kts | 318° |
| 2026-04-17 08:37 | 45.28974 | 19.71318 | 38131 ft | 448 kts | 318° |
| 2026-04-17 08:38 | 45.33721 | 19.65601 | 38142 ft | 446 kts | 318° |
| 2026-04-17 08:38 | 45.38471 | 19.59868 | 38135 ft | 446 kts | 318° |
| 2026-04-17 08:39 | 45.43190 | 19.54160 | 38137 ft | 444 kts | 318° |
| 2026-04-17 08:39 | 45.47912 | 19.48434 | 38140 ft | 444 kts | 318° |
| 2026-04-17 08:40 | 45.52636 | 19.42692 | 38139 ft | 443 kts | 318° |
| 2026-04-17 08:40 | 45.57342 | 19.36960 | 38142 ft | 443 kts | 318° |
| 2026-04-17 08:41 | 45.61909 | 19.31386 | 38148 ft | 442 kts | 317° |
| 2026-04-17 08:41 | 45.66560 | 19.25695 | 38147 ft | 441 kts | 317° |
| 2026-04-17 08:42 | 45.71237 | 19.19958 | 38153 ft | 442 kts | 317° |
| 2026-04-17 08:42 | 45.75894 | 19.14235 | 38146 ft | 440 kts | 317° |
| 2026-04-17 08:43 | 45.80541 | 19.08510 | 38148 ft | 441 kts | 317° |
| 2026-04-17 08:43 | 45.85175 | 19.02788 | 38153 ft | 440 kts | 317° |
| 2026-04-17 08:44 | 45.89822 | 18.97037 | 38153 ft | 440 kts | 317° |
| 2026-04-17 08:44 | 45.94416 | 18.91323 | 38153 ft | 440 kts | 317° |
| 2026-04-17 08:45 | 45.98879 | 18.85617 | 38148 ft | 439 kts | 316° |
| 2026-04-17 08:45 | 46.03387 | 18.79840 | 38147 ft | 439 kts | 316° |
| 2026-04-17 08:46 | 46.07970 | 18.73957 | 38146 ft | 437 kts | 317° |
| 2026-04-17 08:46 | 46.12398 | 18.68262 | 38148 ft | 439 kts | 316° |
| 2026-04-17 08:47 | 46.16914 | 18.62442 | 38151 ft | 438 kts | 317° |
| 2026-04-17 08:47 | 46.21337 | 18.56730 | 38152 ft | 438 kts | 317° |
| 2026-04-17 08:48 | 46.25891 | 18.50835 | 38148 ft | 437 kts | 317° |
| 2026-04-17 08:48 | 46.30411 | 18.44971 | 38151 ft | 438 kts | 317° |
| 2026-04-17 08:49 | 46.34978 | 18.39033 | 38156 ft | 436 kts | 317° |
| 2026-04-17 08:49 | 46.39471 | 18.33176 | 38154 ft | 437 kts | 316° |
| 2026-04-17 08:50 | 46.43976 | 18.27291 | 38158 ft | 436 kts | 316° |
| 2026-04-17 08:50 | 46.48478 | 18.21396 | 38157 ft | 437 kts | 316° |
| 2026-04-17 08:51 | 46.53020 | 18.15435 | 38162 ft | 436 kts | 316° |
| 2026-04-17 08:51 | 46.57509 | 18.09529 | 38163 ft | 436 kts | 316° |
| 2026-04-17 08:52 | 46.62003 | 18.03603 | 38163 ft | 436 kts | 316° |
| 2026-04-17 08:52 | 46.66513 | 17.97642 | 38164 ft | 435 kts | 317° |
| 2026-04-17 08:53 | 46.70992 | 17.91707 | 38161 ft | 436 kts | 317° |
| 2026-04-17 08:53 | 46.75494 | 17.85732 | 38167 ft | 433 kts | 316° |
| 2026-04-17 08:54 | 46.79970 | 17.79792 | 38164 ft | 436 kts | 317° |
| 2026-04-17 08:54 | 46.84431 | 17.73830 | 38167 ft | 432 kts | 317° |
| 2026-04-17 08:55 | 46.88879 | 17.67876 | 38164 ft | 433 kts | 317° |
| 2026-04-17 08:55 | 46.93321 | 17.61919 | 38178 ft | 432 kts | 317° |
| 2026-04-17 08:56 | 46.97784 | 17.55921 | 38164 ft | 433 kts | 317° |
| 2026-04-17 08:56 | 47.02194 | 17.49980 | 38188 ft | 432 kts | 317° |
| 2026-04-17 08:57 | 47.06569 | 17.44074 | 38169 ft | 431 kts | 317° |
| 2026-04-17 08:57 | 47.10965 | 17.38125 | 38202 ft | 431 kts | 317° |
| 2026-04-17 08:58 | 47.15122 | 17.32486 | 38185 ft | 430 kts | 316° |
| 2026-04-17 08:58 | 47.19274 | 17.26842 | 38184 ft | 431 kts | 316° |
| 2026-04-17 08:59 | 47.23607 | 17.20939 | 38189 ft | 430 kts | 316° |
| 2026-04-17 08:59 | 47.28070 | 17.14843 | 38194 ft | 431 kts | 316° |
| 2026-04-17 09:00 | 47.32466 | 17.08827 | 38191 ft | 430 kts | 316° |
| 2026-04-17 09:00 | 47.36851 | 17.02809 | 38196 ft | 430 kts | 316° |
| 2026-04-17 09:01 | 47.41196 | 16.96833 | 38191 ft | 428 kts | 316° |
| 2026-04-17 09:01 | 47.45602 | 16.90757 | 38191 ft | 430 kts | 316° |
| 2026-04-17 09:02 | 47.49977 | 16.84712 | 38203 ft | 429 kts | 316° |
| 2026-04-17 09:02 | 47.54302 | 16.78578 | 38194 ft | 428 kts | 312° |
| 2026-04-17 09:03 | 47.57586 | 16.71473 | 38190 ft | 429 kts | 297° |
| 2026-04-17 09:03 | 47.59915 | 16.63408 | 38203 ft | 431 kts | 294° |
| 2026-04-17 09:04 | 47.62159 | 16.55284 | 38194 ft | 430 kts | 294° |
| 2026-04-17 09:04 | 47.64395 | 16.47094 | 38201 ft | 431 kts | 294° |
| 2026-04-17 09:05 | 47.66598 | 16.38965 | 38206 ft | 430 kts | 294° |
| 2026-04-17 09:05 | 47.68774 | 16.30892 | 38209 ft | 429 kts | 293° |
| 2026-04-17 09:06 | 47.70429 | 16.24731 | 38210 ft | 430 kts | 294° |
| 2026-04-17 09:06 | 47.72925 | 16.15398 | 38203 ft | 428 kts | 294° |
| 2026-04-17 09:07 | 47.75115 | 16.07179 | 38197 ft | 428 kts | 294° |
| 2026-04-17 09:07 | 47.77321 | 15.98866 | 38206 ft | 429 kts | 294° |
| 2026-04-17 09:08 | 47.79475 | 15.90722 | 38218 ft | 430 kts | 294° |
| 2026-04-17 09:08 | 47.81639 | 15.82509 | 38220 ft | 426 kts | 294° |
| 2026-04-17 09:09 | 47.83792 | 15.74310 | 38216 ft | 427 kts | 294° |
| 2026-04-17 09:09 | 47.85939 | 15.66107 | 38220 ft | 427 kts | 294° |
| 2026-04-17 09:10 | 47.89167 | 15.53717 | 38249 ft | 428 kts | 294° |
| 2026-04-17 09:10 | 47.91288 | 15.45536 | 38214 ft | 427 kts | 294° |
| 2026-04-17 09:11 | 47.93428 | 15.37254 | 38224 ft | 424 kts | 294° |
| 2026-04-17 09:11 | 47.95352 | 15.29784 | 38233 ft | 427 kts | 293° |
| 2026-04-17 09:12 | 47.97284 | 15.22255 | 38233 ft | 425 kts | 293° |
| 2026-04-17 09:12 | 47.99392 | 15.14014 | 38227 ft | 425 kts | 293° |
| 2026-04-17 09:13 | 48.01506 | 15.05721 | 38237 ft | 425 kts | 293° |
| 2026-04-17 09:13 | 48.03619 | 14.97401 | 38241 ft | 425 kts | 293° |
| 2026-04-17 09:14 | 48.05707 | 14.89150 | 38244 ft | 424 kts | 293° |
| 2026-04-17 09:14 | 48.07811 | 14.80802 | 38234 ft | 425 kts | 294° |
| 2026-04-17 09:15 | 48.09884 | 14.72547 | 38244 ft | 423 kts | 293° |
| 2026-04-17 09:15 | 48.11957 | 14.64266 | 38253 ft | 425 kts | 294° |
| 2026-04-17 09:16 | 48.13962 | 14.56222 | 38253 ft | 424 kts | 293° |
| 2026-04-17 09:16 | 48.15975 | 14.48122 | 38261 ft | 425 kts | 294° |
| 2026-04-17 09:17 | 48.18045 | 14.39759 | 38256 ft | 423 kts | 294° |
| 2026-04-17 09:17 | 48.20093 | 14.31454 | 38266 ft | 425 kts | 293° |
| 2026-04-17 09:18 | 48.22116 | 14.23221 | 38260 ft | 423 kts | 293° |
| 2026-04-17 09:18 | 48.24112 | 14.15068 | 38272 ft | 424 kts | 293° |
| 2026-04-17 09:19 | 48.26137 | 14.06762 | 38259 ft | 423 kts | 293° |
| 2026-04-17 09:19 | 48.28164 | 13.98423 | 38248 ft | 424 kts | 293° |
| 2026-04-17 09:20 | 48.30175 | 13.90111 | 38259 ft | 422 kts | 293° |
| 2026-04-17 09:20 | 48.32185 | 13.81780 | 38244 ft | 423 kts | 293° |
| 2026-04-17 09:21 | 48.34191 | 13.73429 | 38254 ft | 423 kts | 293° |
| 2026-04-17 09:21 | 48.36176 | 13.65134 | 38250 ft | 421 kts | 293° |
| 2026-04-17 09:22 | 48.38162 | 13.56804 | 38248 ft | 422 kts | 292° |
| 2026-04-17 09:22 | 48.40121 | 13.48556 | 38255 ft | 422 kts | 293° |
| 2026-04-17 09:23 | 48.42075 | 13.40300 | 38246 ft | 421 kts | 292° |
| 2026-04-17 09:23 | 48.44003 | 13.32145 | 38249 ft | 421 kts | 293° |
| 2026-04-17 09:24 | 48.45953 | 13.24784 | 38246 ft | 419 kts | 294° |
| 2026-04-17 09:24 | 48.47859 | 13.17616 | 38250 ft | 419 kts | 294° |
| 2026-04-17 09:25 | 48.49979 | 13.09584 | 38246 ft | 419 kts | 294° |
| 2026-04-17 09:25 | 48.52113 | 13.01454 | 38245 ft | 419 kts | 294° |
| 2026-04-17 09:26 | 48.54254 | 12.93261 | 38234 ft | 419 kts | 294° |
| 2026-04-17 09:26 | 48.56350 | 12.85217 | 38242 ft | 421 kts | 294° |
| 2026-04-17 09:27 | 48.58467 | 12.77057 | 38242 ft | 419 kts | 294° |
| 2026-04-17 09:27 | 48.60586 | 12.68860 | 38238 ft | 419 kts | 294° |
| 2026-04-17 09:28 | 48.62700 | 12.60657 | 38237 ft | 420 kts | 294° |
| 2026-04-17 09:28 | 48.64774 | 12.52573 | 38235 ft | 421 kts | 294° |
| 2026-04-17 09:29 | 48.66897 | 12.44273 | 38231 ft | 420 kts | 294° |
| 2026-04-17 09:29 | 48.68964 | 12.36160 | 38229 ft | 421 kts | 294° |
| 2026-04-17 09:30 | 48.70981 | 12.28220 | 38236 ft | 420 kts | 293° |
| 2026-04-17 09:30 | 48.72940 | 12.20478 | 38236 ft | 421 kts | 293° |
| 2026-04-17 09:31 | 48.74896 | 12.12143 | 38229 ft | 422 kts | 287° |
| 2026-04-17 09:31 | 48.75956 | 12.03351 | 38229 ft | 426 kts | 283° |
| 2026-04-17 09:32 | 48.76905 | 11.94582 | 38231 ft | 426 kts | 283° |
| 2026-04-17 09:32 | 48.77855 | 11.85726 | 38229 ft | 426 kts | 283° |
| 2026-04-17 09:33 | 48.78799 | 11.76862 | 38230 ft | 426 kts | 282° |
| 2026-04-17 09:33 | 48.79738 | 11.67970 | 38219 ft | 425 kts | 282° |
| 2026-04-17 09:34 | 48.80661 | 11.59150 | 38221 ft | 426 kts | 282° |
| 2026-04-17 09:34 | 48.81587 | 11.50215 | 38215 ft | 426 kts | 282° |
| 2026-04-17 09:35 | 48.82497 | 11.41351 | 38216 ft | 427 kts | 282° |
| 2026-04-17 09:35 | 48.83411 | 11.32432 | 38215 ft | 427 kts | 283° |
| 2026-04-17 09:36 | 48.85117 | 11.24209 | 38196 ft | 418 kts | 297° |
| 2026-04-17 09:36 | 48.86567 | 11.20226 | 37884 ft | 416 kts | 304° |
| 2026-04-17 09:36 | 48.88162 | 11.16937 | 37359 ft | 419 kts | 310° |
| 2026-04-17 09:37 | 48.90276 | 11.13614 | 36822 ft | 423 kts | 317° |
| 2026-04-17 09:37 | 48.92466 | 11.10611 | 36472 ft | 423 kts | 317° |
| 2026-04-17 09:37 | 48.94640 | 11.07637 | 36084 ft | 417 kts | 317° |
| 2026-04-17 09:37 | 48.96769 | 11.04704 | 35444 ft | 417 kts | 317° |
| 2026-04-17 09:38 | 48.98853 | 11.01814 | 34730 ft | 419 kts | 317° |
| 2026-04-17 09:38 | 49.00900 | 10.98962 | 33968 ft | 421 kts | 317° |
| 2026-04-17 09:38 | 49.03127 | 10.95850 | 33146 ft | 422 kts | 317° |
| 2026-04-17 09:38 | 49.05317 | 10.92781 | 32354 ft | 422 kts | 317° |
| 2026-04-17 09:39 | 49.07462 | 10.89769 | 31570 ft | 422 kts | 317° |
| 2026-04-17 09:39 | 49.09606 | 10.86751 | 30846 ft | 421 kts | 317° |
| 2026-04-17 09:39 | 49.11731 | 10.83752 | 30419 ft | 413 kts | 317° |
| 2026-04-17 09:39 | 49.13815 | 10.80805 | 29972 ft | 407 kts | 317° |
| 2026-04-17 09:40 | 49.15798 | 10.77998 | 29525 ft | 420 kts | 317° |
| 2026-04-17 09:40 | 49.17978 | 10.74908 | 28999 ft | 424 kts | 317° |
| 2026-04-17 09:40 | 49.19966 | 10.72085 | 28521 ft | 421 kts | 317° |
| 2026-04-17 09:40 | 49.22080 | 10.68845 | 27988 ft | 415 kts | 314° |
| 2026-04-17 09:41 | 49.24079 | 10.65666 | 27472 ft | 411 kts | 314° |
| 2026-04-17 09:41 | 49.26040 | 10.62550 | 26948 ft | 409 kts | 314° |
| 2026-04-17 09:41 | 49.28043 | 10.59370 | 26408 ft | 408 kts | 314° |
| 2026-04-17 09:41 | 49.29991 | 10.56281 | 25881 ft | 406 kts | 314° |
| 2026-04-17 09:42 | 49.31968 | 10.53145 | 25339 ft | 403 kts | 314° |
| 2026-04-17 09:42 | 49.33907 | 10.50069 | 24793 ft | 401 kts | 314° |
| 2026-04-17 09:42 | 49.35817 | 10.46959 | 24260 ft | 399 kts | 311° |
| 2026-04-17 09:42 | 49.37483 | 10.43552 | 23793 ft | 395 kts | 306° |
| 2026-04-17 09:43 | 49.39047 | 10.40136 | 23425 ft | 395 kts | 306° |
| 2026-04-17 09:43 | 49.40635 | 10.36657 | 23031 ft | 395 kts | 306° |
| 2026-04-17 09:43 | 49.42210 | 10.33200 | 22635 ft | 392 kts | 305° |
| 2026-04-17 09:43 | 49.43750 | 10.29818 | 22242 ft | 391 kts | 305° |
| 2026-04-17 09:44 | 49.45247 | 10.26528 | 21855 ft | 388 kts | 305° |
| 2026-04-17 09:44 | 49.46790 | 10.23131 | 21457 ft | 387 kts | 305° |
| 2026-04-17 09:44 | 49.48259 | 10.19896 | 21082 ft | 386 kts | 305° |
| 2026-04-17 09:44 | 49.49791 | 10.16516 | 20687 ft | 383 kts | 305° |
| 2026-04-17 09:45 | 49.51294 | 10.13196 | 20293 ft | 381 kts | 305° |
| 2026-04-17 09:45 | 49.52790 | 10.09889 | 19907 ft | 380 kts | 305° |
| 2026-04-17 09:45 | 49.54286 | 10.06576 | 19527 ft | 378 kts | 305° |
| 2026-04-17 09:45 | 49.55790 | 10.03241 | 19133 ft | 377 kts | 305° |
| 2026-04-17 09:46 | 49.57242 | 10.00019 | 18769 ft | 375 kts | 305° |
| 2026-04-17 09:46 | 49.58717 | 9.96740 | 18390 ft | 373 kts | 305° |
| 2026-04-17 09:46 | 49.60111 | 9.93639 | 18029 ft | 371 kts | 305° |
| 2026-04-17 09:46 | 49.61586 | 9.90351 | 17645 ft | 369 kts | 305° |
| 2026-04-17 09:47 | 49.62954 | 9.87300 | 17295 ft | 369 kts | 305° |
| 2026-04-17 09:47 | 49.64405 | 9.84060 | 16925 ft | 367 kts | 305° |
| 2026-04-17 09:47 | 49.65831 | 9.80869 | 16556 ft | 365 kts | 305° |
| 2026-04-17 09:47 | 49.67267 | 9.77654 | 16163 ft | 364 kts | 305° |
| 2026-04-17 09:48 | 49.68720 | 9.74399 | 15788 ft | 362 kts | 305° |
| 2026-04-17 09:48 | 49.70130 | 9.71233 | 15425 ft | 361 kts | 305° |
| 2026-04-17 09:48 | 49.71549 | 9.68044 | 15054 ft | 359 kts | 304° |
| 2026-04-17 09:48 | 49.72966 | 9.64858 | 14677 ft | 358 kts | 305° |
| 2026-04-17 09:49 | 49.74379 | 9.61673 | 14314 ft | 357 kts | 305° |
| 2026-04-17 09:49 | 49.75767 | 9.58542 | 13944 ft | 356 kts | 304° |
| 2026-04-17 09:49 | 49.77163 | 9.55389 | 13585 ft | 354 kts | 304° |
| 2026-04-17 09:49 | 49.78565 | 9.52219 | 13215 ft | 353 kts | 304° |
| 2026-04-17 09:50 | 49.79940 | 9.49105 | 12854 ft | 352 kts | 304° |
| 2026-04-17 09:50 | 49.81318 | 9.45984 | 12470 ft | 350 kts | 304° |
| 2026-04-17 09:50 | 49.82706 | 9.42835 | 12081 ft | 348 kts | 304° |
| 2026-04-17 09:50 | 49.84061 | 9.39756 | 11733 ft | 347 kts | 304° |
| 2026-04-17 09:51 | 49.85470 | 9.36718 | 11397 ft | 346 kts | 311° |
| 2026-04-17 09:51 | 49.87198 | 9.34293 | 11075 ft | 345 kts | 324° |
| 2026-04-17 09:51 | 49.89102 | 9.32580 | 10827 ft | 336 kts | 330° |
| 2026-04-17 09:51 | 49.91137 | 9.30939 | 10548 ft | 326 kts | 331° |
| 2026-04-17 09:52 | 49.93136 | 9.29349 | 10296 ft | 318 kts | 331° |
| 2026-04-17 09:52 | 49.94987 | 9.27878 | 9998 ft | 311 kts | 331° |
| 2026-04-17 09:52 | 49.96896 | 9.26359 | 9664 ft | 295 kts | 331° |
| 2026-04-17 09:52 | 49.98675 | 9.24943 | 9413 ft | 281 kts | 331° |
| 2026-04-17 09:53 | 50.00404 | 9.23564 | 9166 ft | 276 kts | 331° |
| 2026-04-17 09:53 | 50.02098 | 9.22213 | 8889 ft | 273 kts | 331° |
| 2026-04-17 09:53 | 50.03786 | 9.20864 | 8624 ft | 269 kts | 331° |
| 2026-04-17 09:53 | 50.05442 | 9.19541 | 8348 ft | 266 kts | 331° |
| 2026-04-17 09:54 | 50.07074 | 9.18236 | 8213 ft | 256 kts | 331° |
| 2026-04-17 09:54 | 50.08625 | 9.17009 | 8065 ft | 246 kts | 335° |
| 2026-04-17 09:54 | 50.10068 | 9.16111 | 7790 ft | 245 kts | 338° |
| 2026-04-17 09:54 | 50.10927 | 9.15591 | 7588 ft | 244 kts | 338° |
| 2026-04-17 09:55 | 50.11604 | 9.15157 | 7447 ft | 242 kts | 333° |
| 2026-04-17 09:56 | 50.12865 | 9.13507 | 7059 ft | 239 kts | 303° |
| 2026-04-17 09:56 | 50.13480 | 9.11121 | 6576 ft | 240 kts | 284° |
| 2026-04-17 09:56 | 50.13888 | 9.08657 | 6247 ft | 237 kts | 284° |
| 2026-04-17 09:56 | 50.14161 | 9.06237 | 5864 ft | 237 kts | 270° |
| 2026-04-17 09:57 | 50.14037 | 9.03716 | 5537 ft | 235 kts | 262° |
| 2026-04-17 09:57 | 50.13744 | 9.01262 | 5298 ft | 230 kts | 257° |
| 2026-04-17 09:57 | 50.13381 | 8.98974 | 5176 ft | 219 kts | 255° |
| 2026-04-17 09:57 | 50.12975 | 8.96796 | 5097 ft | 214 kts | 252° |
| 2026-04-17 09:58 | 50.12524 | 8.94650 | 5019 ft | 214 kts | 251° |
| 2026-04-17 09:58 | 50.12059 | 8.92580 | 4971 ft | 213 kts | 250° |
| 2026-04-17 09:58 | 50.11603 | 8.90617 | 4718 ft | 216 kts | 250° |
| 2026-04-17 09:58 | 50.11096 | 8.88467 | 4445 ft | 214 kts | 250° |
| 2026-04-17 09:59 | 50.10590 | 8.86335 | 4163 ft | 212 kts | 250° |
| 2026-04-17 09:59 | 50.10111 | 8.84322 | 3896 ft | 211 kts | 250° |
| 2026-04-17 09:59 | 50.09609 | 8.82212 | 3627 ft | 210 kts | 250° |
| 2026-04-17 09:59 | 50.09110 | 8.80109 | 3348 ft | 206 kts | 250° |
| 2026-04-17 10:00 | 50.08638 | 8.78118 | 3093 ft | 192 kts | 250° |
| 2026-04-17 10:00 | 50.08206 | 8.76295 | 2847 ft | 182 kts | 250° |
| 2026-04-17 10:00 | 50.07781 | 8.74504 | 2605 ft | 173 kts | 250° |
| 2026-04-17 10:00 | 50.07379 | 8.72809 | 2378 ft | 168 kts | 250° |
| 2026-04-17 10:01 | 50.06982 | 8.71140 | 2147 ft | 165 kts | 250° |
| 2026-04-17 10:01 | 50.06596 | 8.69518 | 1926 ft | 158 kts | 250° |
| 2026-04-17 10:01 | 50.06228 | 8.67970 | 1714 ft | 157 kts | 250° |
| 2026-04-17 10:01 | 50.05850 | 8.66384 | 1490 ft | 155 kts | 250° |
| 2026-04-17 10:02 | 50.05481 | 8.64833 | 1271 ft | 154 kts | 250° |
| 2026-04-17 10:02 | 50.05119 | 8.63316 | 1058 ft | 153 kts | 250° |
| 2026-04-17 10:02 | 50.04750 | 8.61797 | 817 ft | 152 kts | 250° |
| 2026-04-17 10:02 | 50.04406 | 8.60346 | 617 ft | 150 kts | 251° |
| 2026-04-17 10:03 | 50.04067 | 8.58911 | 436 ft | 149 kts | 250° |
| 2026-04-17 10:03 | 50.03735 | 8.57520 | 363 ft | 138 kts | 250° |
| 2026-04-17 10:03 | 50.03460 | 8.56366 | 353 ft | 104 kts | 250° |
| 2026-04-17 10:03 | 50.03273 | 8.55582 | 349 ft | 45 kts | 250° |
| 2026-04-17 10:04 | 50.03183 | 8.55154 | 347 ft | 36 kts | 262° |
| 2026-04-17 10:04 | 50.03193 | 8.54820 | 345 ft | 25 kts | 281° |
| 2026-04-17 10:04 | 50.03235 | 8.54617 | 345 ft | 16 kts | 332° |
| 2026-04-17 10:04 | 50.03303 | 8.54681 | 345 ft | 11 kts | 67° |
| 2026-04-17 10:05 | 50.03330 | 8.54792 | 346 ft | 11 kts | 70° |
| 2026-04-17 10:05 | 50.03359 | 8.54913 | 347 ft | 14 kts | 70° |
| 2026-04-17 10:05 | 50.03391 | 8.55051 | 347 ft | 16 kts | 70° |
| 2026-04-17 10:05 | 50.03428 | 8.55200 | 348 ft | 16 kts | 70° |
| 2026-04-17 10:06 | 50.03465 | 8.55358 | 349 ft | 18 kts | 70° |
| 2026-04-17 10:06 | 50.03508 | 8.55538 | 350 ft | 21 kts | 70° |
| 2026-04-17 10:06 | 50.03559 | 8.55751 | 351 ft | 21 kts | 70° |
| 2026-04-17 10:06 | 50.03603 | 8.55936 | 352 ft | 18 kts | 70° |
| 2026-04-17 10:07 | 50.03641 | 8.56094 | 353 ft | 17 kts | 70° |
| 2026-04-17 10:07 | 50.03679 | 8.56254 | 354 ft | 16 kts | 70° |
| 2026-04-17 10:07 | 50.03717 | 8.56412 | 355 ft | 16 kts | 70° |
| 2026-04-17 10:07 | 50.03760 | 8.56596 | 357 ft | 20 kts | 70° |
| 2026-04-17 10:08 | 50.03814 | 8.56818 | 358 ft | 23 kts | 70° |
| 2026-04-17 10:08 | 50.03873 | 8.57064 | 360 ft | 24 kts | 70° |
| 2026-04-17 10:08 | 50.03929 | 8.57304 | 363 ft | 22 kts | 70° |
| 2026-04-17 10:08 | 50.03981 | 8.57520 | 365 ft | 20 kts | 70° |
| 2026-04-17 10:09 | 50.04030 | 8.57720 | 366 ft | 18 kts | 69° |
| 2026-04-17 10:09 | 50.04073 | 8.57901 | 367 ft | 17 kts | 71° |
| 2026-04-17 10:09 | 50.04113 | 8.58066 | 368 ft | 16 kts | 70° |
| 2026-04-17 10:09 | 50.04154 | 8.58238 | 370 ft | 18 kts | 70° |
| 2026-04-17 10:10 | 50.04201 | 8.58436 | 371 ft | 20 kts | 69° |
| 2026-04-17 10:10 | 50.04252 | 8.58645 | 372 ft | 22 kts | 70° |
| 2026-04-17 10:10 | 50.04306 | 8.58870 | 374 ft | 23 kts | 69° |
| 2026-04-17 10:11 | 50.04419 | 8.59337 | 377 ft | 21 kts | 70° |
| 2026-04-17 10:11 | 50.04472 | 8.59471 | 377 ft | 11 kts | 27° |
| 2026-04-17 10:11 | 50.04552 | 8.59470 | 377 ft | 12 kts | 357° |
| 2026-04-17 10:11 | 50.04641 | 8.59460 | 377 ft | 15 kts | 353° |
| 2026-04-17 10:12 | 50.04741 | 8.59419 | 377 ft | 16 kts | 341° |
| 2026-04-17 10:12 | 50.04833 | 8.59368 | 377 ft | 15 kts | 342° |
| 2026-04-17 10:12 | 50.04910 | 8.59372 | 377 ft | 8 kts | 9° |
| 2026-04-17 10:12 | 50.04973 | 8.59351 | 377 ft | 11 kts | 339° |
| 2026-04-17 10:13 | 50.05055 | 8.59302 | 376 ft | 13 kts | 332° |
| 2026-04-17 10:13 | 50.05074 | 8.59189 | 376 ft | 12 kts | 248° |
| 2026-04-17 10:13 | 50.05046 | 8.59070 | 376 ft | 10 kts | 252° |
| 2026-04-17 10:13 | 50.05077 | 8.59000 | 376 ft | 3 kts | 338° |
| 2026-04-17 10:14 | 50.05093 | 8.58991 | 376 ft | 3 kts | 339° |
| 2026-04-17 10:14 | 50.05115 | 8.58978 | 376 ft | 0 kts | 339° |
| 2026-04-17 10:15 | 50.05119 | 8.58975 | 376 ft | 0 kts | 339° |